createdAt,value
2022-08-23T00:01:21.143Z,99.32
2022-08-23T00:03:50.632Z,100.00
2022-08-23T00:06:19.110Z,99.97
2022-08-23T00:08:49.028Z,100.00
2022-08-23T00:11:30.749Z,99.76
2022-08-23T00:14:01.257Z,99.97
2022-08-23T00:16:30.208Z,100.00
2022-08-23T00:18:58.439Z,100.00
2022-08-23T00:21:26.648Z,100.00
2022-08-23T00:23:56.331Z,100.00
2022-08-23T00:26:25.162Z,100.00
2022-08-23T00:28:53.613Z,100.00
2022-08-23T00:31:21.847Z,100.00
2022-08-23T00:33:50.088Z,100.00
2022-08-23T00:36:18.226Z,100.00
2022-08-23T00:38:46.369Z,100.00
2022-08-23T00:41:16.077Z,100.00
2022-08-23T00:44:01.496Z,100.00
2022-08-23T00:47:01.267Z,100.00
2022-08-23T00:49:31.078Z,100.00
2022-08-23T00:52:03.788Z,100.00
2022-08-23T00:54:33.244Z,100.00
2022-08-23T00:57:06.799Z,100.00
2022-08-23T00:59:35.172Z,100.00
2022-08-23T01:02:04.354Z,100.00
2022-08-23T01:04:38.043Z,100.00
2022-08-23T01:07:13.025Z,100.00
2022-08-23T01:09:43.832Z,100.00
2022-08-23T01:12:29.580Z,100.00
2022-08-23T01:15:04.624Z,100.00
2022-08-23T01:17:39.653Z,100.00
2022-08-23T01:20:12.216Z,100.00
2022-08-23T01:22:49.823Z,100.00
2022-08-23T01:25:23.762Z,100.00
2022-08-23T01:27:52.125Z,100.00
2022-08-23T01:30:23.985Z,100.00
2022-08-23T01:32:54.121Z,100.00
2022-08-23T01:35:31.152Z,100.00
2022-08-23T01:37:59.498Z,100.00
2022-08-23T01:40:29.992Z,100.00
2022-08-23T01:42:58.232Z,100.00
2022-08-23T01:45:26.411Z,100.00
2022-08-23T01:47:54.757Z,100.00
2022-08-23T01:50:23.526Z,100.00
2022-08-23T01:52:51.747Z,100.00
2022-08-23T01:55:21.039Z,100.00
2022-08-23T01:57:54.172Z,100.00
2022-08-23T02:00:25.051Z,100.00
2022-08-23T02:02:53.357Z,100.00
2022-08-23T02:05:21.696Z,100.00
2022-08-23T02:07:50.690Z,100.00
2022-08-23T02:10:19.668Z,100.00
2022-08-23T02:12:48.872Z,100.00
2022-08-23T02:15:18.942Z,100.00
2022-08-23T02:17:47.055Z,100.00
2022-08-23T02:20:15.575Z,100.00
2022-08-23T02:22:43.970Z,100.00
2022-08-23T02:25:12.147Z,100.00
2022-08-23T02:27:44.015Z,100.00
2022-08-23T02:30:13.647Z,100.00
2022-08-23T02:32:43.724Z,100.00
2022-08-23T02:35:12.161Z,100.00
2022-08-23T02:37:40.295Z,100.00
2022-08-23T02:40:09.697Z,100.00
2022-08-23T02:42:38.134Z,100.00
2022-08-23T02:45:08.700Z,100.00
2022-08-23T02:47:37.591Z,100.00
2022-08-23T02:50:08.907Z,100.00
2022-08-23T02:52:37.431Z,100.00
2022-08-23T02:55:06.366Z,100.00
2022-08-23T02:57:35.727Z,100.00
2022-08-23T03:00:05.380Z,100.00
2022-08-23T03:02:33.605Z,100.00
2022-08-23T03:05:02.015Z,100.00
2022-08-23T03:07:32.778Z,100.00
2022-08-23T03:10:03.279Z,100.00
2022-08-23T03:12:31.550Z,100.00
2022-08-23T03:14:59.748Z,100.00
2022-08-23T03:17:28.327Z,100.00
2022-08-23T03:19:56.486Z,100.00
2022-08-23T03:22:24.781Z,100.00
2022-08-23T03:24:54.375Z,100.00
2022-08-23T03:27:22.764Z,100.00
2022-08-23T03:29:51.146Z,100.00
2022-08-23T03:32:19.451Z,100.00
2022-08-23T03:34:48.545Z,100.00
2022-08-23T03:37:16.854Z,100.00
2022-08-23T03:39:45.035Z,100.00
2022-08-23T03:42:14.782Z,100.00
2022-08-23T03:44:42.997Z,100.00
2022-08-23T03:47:11.225Z,100.00
2022-08-23T03:49:39.412Z,100.00
2022-08-23T03:52:08.558Z,100.00
2022-08-23T03:54:36.975Z,100.00
2022-08-23T03:57:09.530Z,100.00
2022-08-23T03:59:42.750Z,100.00
2022-08-23T04:02:12.254Z,100.00
2022-08-23T04:04:40.520Z,100.00
2022-08-23T04:07:08.755Z,100.00
2022-08-23T04:09:36.990Z,100.00
2022-08-23T04:12:17.636Z,100.00
2022-08-23T04:14:47.778Z,100.00
2022-08-23T04:17:16.676Z,100.00
2022-08-23T04:19:44.912Z,100.00
2022-08-23T04:22:14.114Z,100.00
2022-08-23T04:24:43.117Z,100.00
2022-08-23T04:27:11.763Z,100.00
2022-08-23T04:29:40.417Z,100.00
2022-08-23T04:32:14.896Z,100.00
2022-08-23T04:34:55.169Z,100.00
2022-08-23T04:37:23.370Z,100.00
2022-08-23T04:40:09.021Z,100.00
2022-08-23T04:42:37.268Z,100.00
2022-08-23T04:45:05.815Z,100.00
2022-08-23T04:47:39.246Z,100.00
2022-08-23T04:50:08.724Z,99.41
2022-08-23T04:52:36.943Z,94.39
2022-08-23T04:55:05.985Z,94.33
2022-08-23T04:57:34.155Z,95.11
2022-08-23T05:00:02.547Z,92.58
2022-08-23T05:02:30.968Z,91.95
2022-08-23T05:05:00.575Z,91.74
2022-08-23T05:07:41.672Z,91.25
2022-08-23T05:10:13.901Z,94.42
2022-08-23T05:12:42.620Z,93.65
2022-08-23T05:15:12.112Z,94.23
2022-08-23T05:17:40.755Z,93.32
2022-08-23T05:20:11.879Z,92.92
2022-08-23T05:22:41.937Z,93.44
2022-08-23T05:25:10.586Z,92.25
2022-08-23T05:27:39.156Z,91.74
2022-08-23T05:30:08.843Z,91.84
2022-08-23T05:32:43.835Z,92.73
2022-08-23T05:35:13.365Z,91.47
2022-08-23T05:37:41.694Z,88.97
2022-08-23T05:40:11.151Z,88.14
2022-08-23T05:42:39.517Z,88.40
2022-08-23T05:45:09.772Z,84.88
2022-08-23T05:47:38.008Z,83.16
2022-08-23T05:50:07.001Z,83.87
2022-08-23T05:52:36.946Z,77.69
2022-08-23T05:55:06.063Z,74.87
2022-08-23T05:57:35.818Z,71.69
2022-08-23T06:00:05.668Z,73.27
2022-08-23T06:02:33.834Z,73.71
2022-08-23T06:05:02.030Z,72.73
2022-08-23T06:07:31.370Z,73.90
2022-08-23T06:10:01.103Z,74.82
2022-08-23T06:12:29.263Z,75.36
2022-08-23T06:14:57.883Z,77.23
2022-08-23T06:17:27.316Z,76.07
2022-08-23T06:19:55.992Z,73.71
2022-08-23T06:22:24.284Z,71.75
2022-08-23T06:24:52.478Z,70.29
2022-08-23T06:27:22.100Z,71.42
2022-08-23T06:29:52.078Z,71.74
2022-08-23T06:32:20.304Z,73.95
2022-08-23T06:34:48.446Z,77.08
2022-08-23T06:37:17.014Z,75.30
2022-08-23T06:39:46.076Z,73.58
2022-08-23T06:42:50.240Z,72.64
2022-08-23T06:45:06.731Z,69.97
2022-08-23T06:47:34.951Z,66.73
2022-08-23T06:50:03.196Z,63.09
2022-08-23T06:52:31.327Z,59.64
2022-08-23T06:55:00.153Z,61.50
2022-08-23T06:57:32.525Z,59.51
2022-08-23T07:00:00.886Z,60.36
2022-08-23T07:02:30.593Z,57.33
2022-08-23T07:04:59.135Z,58.27
2022-08-23T07:07:39.720Z,58.42
2022-08-23T07:10:13.095Z,58.95
2022-08-23T07:12:43.310Z,59.70
2022-08-23T07:15:12.939Z,62.64
2022-08-23T07:17:42.501Z,63.80
2022-08-23T07:20:11.086Z,64.31
2022-08-23T07:22:40.033Z,63.96
2022-08-23T07:25:08.647Z,62.18
2022-08-23T07:27:36.878Z,59.42
2022-08-23T07:30:07.115Z,59.84
2022-08-23T07:32:35.617Z,59.47
2022-08-23T07:35:07.109Z,62.66
2022-08-23T07:37:35.279Z,67.92
2022-08-23T07:40:03.444Z,68.13
2022-08-23T07:42:31.651Z,69.20
2022-08-23T07:44:59.891Z,69.62
2022-08-23T07:47:29.737Z,69.05
2022-08-23T07:49:57.862Z,71.82
2022-08-23T07:52:27.425Z,71.75
2022-08-23T07:54:55.600Z,72.44
2022-08-23T07:57:23.869Z,72.35
2022-08-23T07:59:52.076Z,70.84
2022-08-23T08:02:20.269Z,72.58
2022-08-23T08:04:48.394Z,71.35
2022-08-23T08:07:20.665Z,70.99
2022-08-23T08:09:50.810Z,72.41
2022-08-23T08:12:19.113Z,72.57
2022-08-23T08:14:48.874Z,72.32
2022-08-23T08:17:18.154Z,70.96
2022-08-23T08:19:46.945Z,70.08
2022-08-23T08:22:15.204Z,71.70
2022-08-23T08:24:43.645Z,71.65
2022-08-23T08:27:13.191Z,71.18
2022-08-23T08:29:42.120Z,68.19
2022-08-23T08:32:13.694Z,68.77
2022-08-23T08:34:42.492Z,68.16
2022-08-23T08:37:10.917Z,69.37
2022-08-23T08:39:45.860Z,66.73
2022-08-23T08:42:32.760Z,65.88
2022-08-23T08:45:04.809Z,67.50
2022-08-23T08:47:42.234Z,66.22
2022-08-23T08:50:19.228Z,64.82
2022-08-23T08:52:51.552Z,64.78
2022-08-23T08:55:25.401Z,64.60
2022-08-23T08:57:56.672Z,65.44
2022-08-23T09:00:27.346Z,65.95
2022-08-23T09:02:57.487Z,66.43
2022-08-23T09:05:31.710Z,67.82
2022-08-23T09:08:15.762Z,69.77
2022-08-23T09:10:58.947Z,72.61
2022-08-23T09:13:56.650Z,70.42
2022-08-23T09:16:38.120Z,68.67
2022-08-23T09:19:07.153Z,69.88
2022-08-23T09:21:46.840Z,68.69
2022-08-23T09:24:15.868Z,69.78
2022-08-23T09:26:45.571Z,73.13
2022-08-23T09:29:22.060Z,71.85
2022-08-23T09:31:54.208Z,69.54
2022-08-23T09:34:38.730Z,67.74
2022-08-23T09:37:18.698Z,70.39
2022-08-23T09:39:50.846Z,69.08
2022-08-23T09:42:39.685Z,65.66
2022-08-23T09:45:26.597Z,65.15
2022-08-23T09:47:56.266Z,67.36
2022-08-23T09:50:29.219Z,65.18
2022-08-23T09:53:01.075Z,66.61
2022-08-23T09:55:36.412Z,68.65
2022-08-23T09:58:08.368Z,70.17
2022-08-23T10:00:38.336Z,69.35
2022-08-23T10:03:28.989Z,68.25
2022-08-23T10:05:59.358Z,66.22
2022-08-23T10:08:33.057Z,64.98
2022-08-23T10:11:09.392Z,67.72
2022-08-23T10:13:38.316Z,64.63
2022-08-23T10:16:13.692Z,63.81
2022-08-23T10:18:52.815Z,63.19
2022-08-23T10:21:26.484Z,63.87
2022-08-23T10:24:21.260Z,62.81
2022-08-23T10:27:30.812Z,61.40
2022-08-23T10:30:06.130Z,62.07
2022-08-23T10:32:47.453Z,64.50
2022-08-23T10:35:38.626Z,63.95
2022-08-23T10:38:42.342Z,64.54
2022-08-23T10:41:27.481Z,66.20
2022-08-23T10:44:05.346Z,66.83
2022-08-23T10:46:53.657Z,64.38
2022-08-23T10:49:23.422Z,64.21
2022-08-23T10:51:54.748Z,65.54
2022-08-23T10:54:35.987Z,63.30
2022-08-23T10:57:07.913Z,63.16
2022-08-23T10:59:37.693Z,62.27
2022-08-23T11:02:20.821Z,61.69
2022-08-23T11:04:55.000Z,60.21
2022-08-23T11:07:30.365Z,63.08
2022-08-23T11:10:16.728Z,68.05
2022-08-23T11:12:56.235Z,69.51
2022-08-23T11:15:33.618Z,69.89
2022-08-23T11:18:04.976Z,70.98
2022-08-23T11:21:03.211Z,70.94
2022-08-23T11:24:18.506Z,72.18
2022-08-23T11:27:09.011Z,70.12
2022-08-23T11:29:41.620Z,72.00
2022-08-23T11:32:33.311Z,69.39
2022-08-23T11:35:10.748Z,71.67
2022-08-23T11:37:57.263Z,71.50
2022-08-23T11:40:58.575Z,71.78
2022-08-23T11:43:37.757Z,72.75
2022-08-23T11:46:32.284Z,70.38
2022-08-23T11:49:25.018Z,70.20
2022-08-23T11:52:03.421Z,70.23
2022-08-23T11:54:48.455Z,69.54
2022-08-23T11:57:26.306Z,69.66
2022-08-23T12:00:08.600Z,69.23
2022-08-23T12:02:48.950Z,70.01
2022-08-23T12:05:33.612Z,69.91
2022-08-23T12:08:46.992Z,70.84
2022-08-23T12:11:17.101Z,69.84
2022-08-23T12:13:58.996Z,69.15
2022-08-23T12:16:32.489Z,70.21
2022-08-23T12:19:04.332Z,68.46
2022-08-23T12:21:41.225Z,70.57
2022-08-23T12:24:17.539Z,72.08
2022-08-23T12:27:05.075Z,71.44
2022-08-23T12:29:48.482Z,70.73
2022-08-23T12:32:30.412Z,75.70
2022-08-23T12:35:08.027Z,76.55
2022-08-23T12:37:46.331Z,77.06
2022-08-23T12:40:23.572Z,77.85
2022-08-23T12:42:52.449Z,78.89
2022-08-23T12:45:23.853Z,78.90
2022-08-23T12:48:00.034Z,78.25
2022-08-23T12:50:33.394Z,77.21
2022-08-23T12:53:56.469Z,77.42
2022-08-23T12:56:31.659Z,76.60
2022-08-23T12:59:05.012Z,77.37
2022-08-23T13:01:37.267Z,75.92
2022-08-23T13:04:12.079Z,76.19
2022-08-23T13:06:45.313Z,78.29
2022-08-23T13:09:20.805Z,77.59
2022-08-23T13:11:49.214Z,77.07
2022-08-23T13:14:25.029Z,76.23
2022-08-23T13:16:54.074Z,74.41
2022-08-23T13:19:31.016Z,73.83
2022-08-23T13:22:20.420Z,73.98
2022-08-23T13:25:27.532Z,73.17
2022-08-23T13:27:54.967Z,73.98
2022-08-23T13:30:27.039Z,75.76
2022-08-23T13:33:22.328Z,73.11
2022-08-23T13:35:54.582Z,75.78
2022-08-23T13:38:26.921Z,76.11
2022-08-23T13:40:59.156Z,75.74
2022-08-23T13:43:32.991Z,75.89
2022-08-23T13:46:11.790Z,75.92
2022-08-23T13:48:47.346Z,75.98
2022-08-23T13:51:25.009Z,76.74
2022-08-23T13:53:53.533Z,76.78
2022-08-23T13:56:22.685Z,76.78
2022-08-23T13:58:56.806Z,76.07
2022-08-23T14:01:25.260Z,76.15
2022-08-23T14:03:53.904Z,77.26
2022-08-23T14:06:24.031Z,77.76
2022-08-23T14:08:52.277Z,77.13
2022-08-23T14:11:20.623Z,78.95
2022-08-23T14:13:50.479Z,80.00
2022-08-23T14:16:39.121Z,80.23
2022-08-23T14:19:54.066Z,77.24
2022-08-23T14:21:59.608Z,76.05
2022-08-23T14:24:28.357Z,75.83
2022-08-23T14:26:57.200Z,75.91
2022-08-23T14:29:28.384Z,76.92
2022-08-23T14:31:56.752Z,77.18
2022-08-23T14:34:25.541Z,78.51
2022-08-23T14:39:44.124Z,80.11
2022-08-23T14:42:14.328Z,80.63
2022-08-23T14:44:42.772Z,81.03
2022-08-23T14:47:10.910Z,81.36
2022-08-23T14:49:39.033Z,80.45
2022-08-23T14:52:07.829Z,81.24
2022-08-23T14:54:35.982Z,79.69
2022-08-23T14:57:06.139Z,80.47
2022-08-23T14:59:34.382Z,80.35
2022-08-23T15:02:03.717Z,82.58
2022-08-23T15:04:34.563Z,81.87
2022-08-23T15:07:19.634Z,81.74
2022-08-23T15:09:48.985Z,82.80
2022-08-23T15:15:12.338Z,79.62
2022-08-23T15:17:48.099Z,80.03
2022-08-23T15:20:16.627Z,81.93
2022-08-23T15:22:45.225Z,81.50
2022-08-23T15:25:23.609Z,82.43
2022-08-23T15:27:53.779Z,84.15
2022-08-23T15:30:23.656Z,85.79
2022-08-23T15:32:56.256Z,87.28
2022-08-23T15:35:26.073Z,85.45
2022-08-23T15:37:56.238Z,83.82
2022-08-23T15:40:25.961Z,84.01
2022-08-23T15:42:56.102Z,82.76
2022-08-23T15:45:24.566Z,84.54
2022-08-23T15:47:55.175Z,85.54
2022-08-23T15:50:26.775Z,85.66
2022-08-23T15:52:56.562Z,86.71
2022-08-23T15:55:26.099Z,85.47
2022-08-23T15:57:58.414Z,86.33
2022-08-23T16:00:28.660Z,85.60
2022-08-23T16:03:20.614Z,86.95
2022-08-23T16:05:47.707Z,89.28
2022-08-23T16:08:21.286Z,90.63
2022-08-23T16:10:49.719Z,90.10
2022-08-23T16:13:19.402Z,89.56
2022-08-23T16:15:47.675Z,89.57
2022-08-23T16:18:16.210Z,89.92
2022-08-23T16:20:44.999Z,88.23
2022-08-23T16:23:13.488Z,89.21
2022-08-23T16:25:42.108Z,89.84
2022-08-23T16:28:10.394Z,90.66
2022-08-23T16:30:39.986Z,91.14
2022-08-23T16:33:08.106Z,91.72
2022-08-23T16:35:36.611Z,93.38
2022-08-23T16:38:05.307Z,93.37
2022-08-23T16:40:33.385Z,96.02
2022-08-23T16:43:01.835Z,96.76
2022-08-23T16:45:30.049Z,95.14
2022-08-23T16:48:00.804Z,93.88
2022-08-23T16:50:29.242Z,94.45
2022-08-23T16:52:57.586Z,94.46
2022-08-23T16:55:25.738Z,95.25
2022-08-23T16:57:54.024Z,95.70
2022-08-23T17:00:23.061Z,95.80
2022-08-23T17:02:51.198Z,95.61
2022-08-23T17:05:21.040Z,95.36
2022-08-23T17:07:49.341Z,96.03
2022-08-23T17:10:19.660Z,95.85
2022-08-23T17:12:51.295Z,97.25
2022-08-23T17:15:23.496Z,96.98
2022-08-23T17:17:51.919Z,98.23
2022-08-23T17:20:23.972Z,98.01
2022-08-23T17:22:53.732Z,98.72
2022-08-23T17:25:21.915Z,98.10
2022-08-23T17:27:53.307Z,98.07
2022-08-23T17:30:25.270Z,98.42
2022-08-23T17:32:53.504Z,98.51
2022-08-23T17:35:26.996Z,99.05
2022-08-23T17:37:56.155Z,100.00
2022-08-23T17:40:30.005Z,100.00
2022-08-23T17:43:00.509Z,100.00
2022-08-23T17:45:30.256Z,100.00
2022-08-23T17:47:58.712Z,100.00
2022-08-23T17:50:28.508Z,99.55
2022-08-23T17:52:56.713Z,98.34
2022-08-23T17:55:24.949Z,99.22
2022-08-23T17:57:57.677Z,97.77
2022-08-23T18:00:32.538Z,96.84
2022-08-23T18:03:00.950Z,96.29
2022-08-23T18:05:33.323Z,96.25
2022-08-23T18:08:01.788Z,96.62
2022-08-23T18:10:31.096Z,96.25
2022-08-23T18:12:59.322Z,95.44
2022-08-23T18:15:31.232Z,96.32
2022-08-23T18:18:00.732Z,95.61
2022-08-23T18:20:31.333Z,95.92
2022-08-23T18:23:00.533Z,95.27
2022-08-23T18:25:29.327Z,95.93
2022-08-23T18:28:09.940Z,95.49
2022-08-23T18:30:41.494Z,94.69
2022-08-23T18:33:12.608Z,95.23
2022-08-23T18:35:43.600Z,94.36
2022-08-23T18:38:13.735Z,93.44
2022-08-23T18:40:46.440Z,94.36
2022-08-23T18:43:16.999Z,94.54
2022-08-23T18:45:45.626Z,95.28
2022-08-23T18:48:13.896Z,94.92
2022-08-23T18:50:44.157Z,93.87
2022-08-23T18:53:13.725Z,94.37
2022-08-23T18:55:42.415Z,92.92
2022-08-23T18:58:11.028Z,91.91
2022-08-23T19:00:40.375Z,91.81
2022-08-23T19:03:09.510Z,92.14
2022-08-23T19:05:42.139Z,91.70
2022-08-23T19:08:15.424Z,91.40
2022-08-23T19:10:44.768Z,90.65
2022-08-23T19:13:13.363Z,90.28
2022-08-23T19:15:42.380Z,90.51
2022-08-23T19:18:11.382Z,90.94
2022-08-23T19:20:39.924Z,90.65
2022-08-23T19:23:08.088Z,90.90
2022-08-23T19:25:38.693Z,91.02
2022-08-23T19:28:07.274Z,91.84
2022-08-23T19:30:35.752Z,92.19
2022-08-23T19:33:04.237Z,91.76
2022-08-23T19:35:32.754Z,92.92
2022-08-23T19:38:01.149Z,92.90
2022-08-23T19:40:29.373Z,93.31
2022-08-23T19:43:00.540Z,94.35
2022-08-23T19:45:32.022Z,94.44
2022-08-23T19:48:00.871Z,95.39
2022-08-23T19:50:29.511Z,94.92
2022-08-23T19:52:58.048Z,95.20
2022-08-23T19:55:27.440Z,95.09
2022-08-23T19:57:56.426Z,95.54
2022-08-23T20:00:27.856Z,95.37
2022-08-23T20:02:56.235Z,95.39
2022-08-23T20:05:24.447Z,95.82
2022-08-23T20:07:52.692Z,95.54
2022-08-23T20:10:21.331Z,96.84
2022-08-23T20:12:49.470Z,97.58
2022-08-23T20:15:17.649Z,98.19
2022-08-23T20:17:47.286Z,98.45
2022-08-23T20:20:15.427Z,98.16
2022-08-23T20:23:01.298Z,98.87
2022-08-23T20:25:30.778Z,98.92
2022-08-23T20:27:59.501Z,98.01
2022-08-23T20:30:27.748Z,97.28
2022-08-23T20:32:57.346Z,97.25
2022-08-23T20:35:25.733Z,97.81
2022-08-23T20:37:53.990Z,97.69
2022-08-23T20:40:23.596Z,98.17
2022-08-23T20:42:52.553Z,98.21
2022-08-23T20:45:21.103Z,98.85
2022-08-23T20:47:49.356Z,99.21
2022-08-23T20:50:19.415Z,98.56
2022-08-23T20:52:47.877Z,99.82
2022-08-23T20:55:16.338Z,100.00
2022-08-23T20:57:44.646Z,100.00
2022-08-23T21:00:13.991Z,100.00
2022-08-23T21:02:42.187Z,100.00
2022-08-23T21:05:10.637Z,100.00
2022-08-23T21:07:40.150Z,100.00
2022-08-23T21:10:10.617Z,100.00
2022-08-23T21:12:38.823Z,100.00
2022-08-23T21:15:10.911Z,100.00
2022-08-23T21:17:39.378Z,100.00
2022-08-23T21:20:08.542Z,100.00
2022-08-23T21:22:36.804Z,100.00
2022-08-23T21:25:07.249Z,100.00
2022-08-23T21:27:35.939Z,100.00
2022-08-23T21:30:05.404Z,100.00
2022-08-23T21:32:33.974Z,100.00
2022-08-23T21:35:02.579Z,100.00
2022-08-23T21:37:31.238Z,100.00
2022-08-23T21:39:59.477Z,100.00
2022-08-23T21:42:30.684Z,100.00
2022-08-23T21:44:58.885Z,100.00
2022-08-23T21:47:27.221Z,100.00
2022-08-23T21:49:55.516Z,100.00
2022-08-23T21:52:23.691Z,99.25
2022-08-23T21:54:52.093Z,96.38
2022-08-23T21:57:20.771Z,95.32
2022-08-23T21:59:50.302Z,95.22
2022-08-23T22:02:19.389Z,94.86
2022-08-23T22:04:48.127Z,95.07
2022-08-23T22:07:17.540Z,95.26
2022-08-23T22:09:46.243Z,95.86
2022-08-23T22:12:15.134Z,95.55
2022-08-23T22:14:43.222Z,96.38
2022-08-23T22:17:15.107Z,96.97
2022-08-23T22:19:43.229Z,97.47
2022-08-23T22:22:11.729Z,97.32
2022-08-23T22:24:40.676Z,97.71
2022-08-23T22:27:09.217Z,98.05
2022-08-23T22:29:37.862Z,98.65
2022-08-23T22:32:06.552Z,99.54
2022-08-23T22:34:37.231Z,99.74
2022-08-23T22:37:05.655Z,99.42
2022-08-23T22:39:33.904Z,100.00
2022-08-23T22:42:02.016Z,99.95
2022-08-23T22:44:30.357Z,100.00
2022-08-23T22:46:59.025Z,99.99
2022-08-23T22:49:27.769Z,99.72
2022-08-23T22:52:00.720Z,100.00
2022-08-23T22:54:28.831Z,99.62
2022-08-23T22:56:56.982Z,100.00
2022-08-23T22:59:32.813Z,100.00
2022-08-23T23:02:03.495Z,99.70
2022-08-23T23:04:33.337Z,99.33
2022-08-23T23:07:03.489Z,99.40
2022-08-23T23:09:31.843Z,98.95
2022-08-23T23:12:00.000Z,98.88
2022-08-23T23:14:28.358Z,98.79
2022-08-23T23:16:56.744Z,98.30
2022-08-23T23:19:42.152Z,96.76
2022-08-23T23:22:15.192Z,97.22
2022-08-23T23:24:43.368Z,98.06
2022-08-23T23:27:11.677Z,97.67
2022-08-23T23:29:40.101Z,97.75
2022-08-23T23:32:08.544Z,97.76
2022-08-23T23:34:38.077Z,97.92
2022-08-23T23:37:06.786Z,99.09
2022-08-23T23:39:36.544Z,99.76
2022-08-23T23:42:05.483Z,100.00
2022-08-23T23:44:33.655Z,100.00
2022-08-23T23:47:03.164Z,100.00
2022-08-23T23:49:33.500Z,100.00
2022-08-23T23:52:03.725Z,100.00
2022-08-23T23:54:31.950Z,100.00
2022-08-23T23:57:01.533Z,100.00
2022-08-23T23:59:29.821Z,100.00
